sensor_id;sensor_type;location;lat;lon;timestamp;P1;durP1;ratioP1;P2;durP2;ratioP2
9388;SDS011;4734;52.778;6.798;2022-12-18T00:00:25;51.53;;;27.70;;
9388;SDS011;4734;52.778;6.798;2022-12-18T00:03:11;54.70;;;28.87;;
9388;SDS011;4734;52.778;6.798;2022-12-18T00:05:57;52.53;;;28.30;;
9388;SDS011;4734;52.778;6.798;2022-12-18T00:08:43;54.30;;;28.80;;
9388;SDS011;4734;52.778;6.798;2022-12-18T00:11:29;49.40;;;27.60;;
9388;SDS011;4734;52.778;6.798;2022-12-18T00:14:15;53.97;;;29.17;;
9388;SDS011;4734;52.778;6.798;2022-12-18T00:17:03;56.57;;;30.27;;
9388;SDS011;4734;52.778;6.798;2022-12-18T00:19:48;60.97;;;30.90;;
9388;SDS011;4734;52.778;6.798;2022-12-18T00:22:34;55.33;;;29.13;;
9388;SDS011;4734;52.778;6.798;2022-12-18T00:25:20;54.50;;;29.87;;
9388;SDS011;4734;52.778;6.798;2022-12-18T00:28:06;60.90;;;31.57;;
9388;SDS011;4734;52.778;6.798;2022-12-18T00:30:58;61.40;;;30.87;;
9388;SDS011;4734;52.778;6.798;2022-12-18T00:33:45;57.23;;;30.67;;
9388;SDS011;4734;52.778;6.798;2022-12-18T00:36:32;59.47;;;30.20;;
9388;SDS011;4734;52.778;6.798;2022-12-18T00:39:19;58.20;;;29.70;;
9388;SDS011;4734;52.778;6.798;2022-12-18T00:42:04;55.33;;;29.10;;
9388;SDS011;4734;52.778;6.798;2022-12-18T00:45:08;47.67;;;26.30;;
9388;SDS011;4734;52.778;6.798;2022-12-18T00:47:54;49.90;;;26.93;;
9388;SDS011;4734;52.778;6.798;2022-12-18T00:50:42;49.77;;;27.13;;
9388;SDS011;4734;52.778;6.798;2022-12-18T00:53:28;50.73;;;26.87;;
9388;SDS011;4734;52.778;6.798;2022-12-18T00:56:14;51.63;;;27.50;;
9388;SDS011;4734;52.778;6.798;2022-12-18T00:58:59;49.43;;;25.97;;
9388;SDS011;4734;52.778;6.798;2022-12-18T01:01:45;51.73;;;26.83;;
9388;SDS011;4734;52.778;6.798;2022-12-18T01:04:31;52.63;;;26.77;;
9388;SDS011;4734;52.778;6.798;2022-12-18T01:07:19;52.73;;;27.93;;
9388;SDS011;4734;52.778;6.798;2022-12-18T01:10:05;53.63;;;26.67;;
9388;SDS011;4734;52.778;6.798;2022-12-18T01:12:51;53.37;;;25.83;;
9388;SDS011;4734;52.778;6.798;2022-12-18T01:15:37;50.70;;;26.47;;
9388;SDS011;4734;52.778;6.798;2022-12-18T01:18:23;51.37;;;25.43;;
9388;SDS011;4734;52.778;6.798;2022-12-18T01:21:10;47.50;;;26.00;;
9388;SDS011;4734;52.778;6.798;2022-12-18T01:23:57;50.00;;;25.03;;
9388;SDS011;4734;52.778;6.798;2022-12-18T01:26:43;47.57;;;24.97;;
9388;SDS011;4734;52.778;6.798;2022-12-18T01:29:29;43.77;;;24.43;;
9388;SDS011;4734;52.778;6.798;2022-12-18T01:32:15;43.13;;;24.30;;
9388;SDS011;4734;52.778;6.798;2022-12-18T01:35:01;44.57;;;22.33;;
9388;SDS011;4734;52.778;6.798;2022-12-18T01:37:47;43.80;;;22.77;;
9388;SDS011;4734;52.778;6.798;2022-12-18T01:40:34;42.07;;;23.27;;
9388;SDS011;4734;52.778;6.798;2022-12-18T01:43:20;45.43;;;22.50;;
9388;SDS011;4734;52.778;6.798;2022-12-18T01:46:05;44.90;;;23.67;;
9388;SDS011;4734;52.778;6.798;2022-12-18T01:48:52;43.33;;;22.63;;
9388;SDS011;4734;52.778;6.798;2022-12-18T01:51:39;45.60;;;23.97;;
9388;SDS011;4734;52.778;6.798;2022-12-18T01:54:27;44.43;;;22.37;;
9388;SDS011;4734;52.778;6.798;2022-12-18T01:57:15;39.77;;;21.73;;
9388;SDS011;4734;52.778;6.798;2022-12-18T02:00:03;44.10;;;22.80;;
9388;SDS011;4734;52.778;6.798;2022-12-18T02:02:49;42.17;;;21.57;;
9388;SDS011;4734;52.778;6.798;2022-12-18T02:05:40;47.47;;;23.33;;
9388;SDS011;4734;52.778;6.798;2022-12-18T02:08:30;45.23;;;23.07;;
9388;SDS011;4734;52.778;6.798;2022-12-18T02:11:20;46.33;;;24.13;;
9388;SDS011;4734;52.778;6.798;2022-12-18T02:14:13;45.07;;;22.93;;
9388;SDS011;4734;52.778;6.798;2022-12-18T02:17:03;48.13;;;24.20;;
9388;SDS011;4734;52.778;6.798;2022-12-18T02:19:55;43.27;;;23.73;;
9388;SDS011;4734;52.778;6.798;2022-12-18T02:22:48;46.70;;;22.83;;
9388;SDS011;4734;52.778;6.798;2022-12-18T02:25:40;47.30;;;23.70;;
9388;SDS011;4734;52.778;6.798;2022-12-18T02:28:30;41.63;;;22.43;;
9388;SDS011;4734;52.778;6.798;2022-12-18T02:31:17;44.03;;;22.07;;
9388;SDS011;4734;52.778;6.798;2022-12-18T02:34:08;46.97;;;21.77;;
9388;SDS011;4734;52.778;6.798;2022-12-18T02:36:54;39.63;;;21.23;;
9388;SDS011;4734;52.778;6.798;2022-12-18T02:39:42;45.43;;;21.77;;
9388;SDS011;4734;52.778;6.798;2022-12-18T02:42:29;37.13;;;19.67;;
9388;SDS011;4734;52.778;6.798;2022-12-18T02:45:16;36.40;;;19.47;;
9388;SDS011;4734;52.778;6.798;2022-12-18T02:48:02;33.30;;;19.07;;
9388;SDS011;4734;52.778;6.798;2022-12-18T02:50:50;37.23;;;19.57;;
9388;SDS011;4734;52.778;6.798;2022-12-18T02:53:39;35.97;;;18.83;;
9388;SDS011;4734;52.778;6.798;2022-12-18T02:56:28;34.63;;;17.93;;
9388;SDS011;4734;52.778;6.798;2022-12-18T02:59:15;33.10;;;19.00;;
9388;SDS011;4734;52.778;6.798;2022-12-18T03:02:08;26.53;;;17.37;;
9388;SDS011;4734;52.778;6.798;2022-12-18T03:04:59;32.63;;;17.40;;
9388;SDS011;4734;52.778;6.798;2022-12-18T03:07:48;25.73;;;16.57;;
9388;SDS011;4734;52.778;6.798;2022-12-18T03:10:37;27.60;;;17.10;;
9388;SDS011;4734;52.778;6.798;2022-12-18T03:13:33;29.60;;;17.13;;
9388;SDS011;4734;52.778;6.798;2022-12-18T03:16:21;28.30;;;16.63;;
9388;SDS011;4734;52.778;6.798;2022-12-18T03:19:10;28.67;;;16.67;;
9388;SDS011;4734;52.778;6.798;2022-12-18T03:21:57;29.40;;;17.90;;
9388;SDS011;4734;52.778;6.798;2022-12-18T03:24:43;27.10;;;16.10;;
9388;SDS011;4734;52.778;6.798;2022-12-18T03:27:30;31.80;;;16.73;;
9388;SDS011;4734;52.778;6.798;2022-12-18T03:30:18;32.83;;;17.10;;
9388;SDS011;4734;52.778;6.798;2022-12-18T03:33:05;26.47;;;15.53;;
9388;SDS011;4734;52.778;6.798;2022-12-18T03:35:54;26.00;;;14.93;;
9388;SDS011;4734;52.778;6.798;2022-12-18T03:38:40;29.43;;;15.00;;
9388;SDS011;4734;52.778;6.798;2022-12-18T03:41:28;25.17;;;15.33;;
9388;SDS011;4734;52.778;6.798;2022-12-18T03:44:16;24.20;;;14.73;;
9388;SDS011;4734;52.778;6.798;2022-12-18T03:47:07;26.83;;;15.13;;
9388;SDS011;4734;52.778;6.798;2022-12-18T03:49:54;25.93;;;15.30;;
9388;SDS011;4734;52.778;6.798;2022-12-18T03:52:45;27.13;;;14.60;;
9388;SDS011;4734;52.778;6.798;2022-12-18T03:55:34;23.53;;;15.10;;
9388;SDS011;4734;52.778;6.798;2022-12-18T03:58:20;27.33;;;14.83;;
9388;SDS011;4734;52.778;6.798;2022-12-18T04:01:08;24.67;;;15.07;;
9388;SDS011;4734;52.778;6.798;2022-12-18T04:03:55;25.93;;;15.20;;
9388;SDS011;4734;52.778;6.798;2022-12-18T04:06:42;24.17;;;14.83;;
9388;SDS011;4734;52.778;6.798;2022-12-18T04:09:30;25.77;;;15.20;;
9388;SDS011;4734;52.778;6.798;2022-12-18T04:12:17;22.23;;;13.23;;
9388;SDS011;4734;52.778;6.798;2022-12-18T04:15:03;21.97;;;14.03;;
9388;SDS011;4734;52.778;6.798;2022-12-18T04:17:49;24.67;;;14.90;;
9388;SDS011;4734;52.778;6.798;2022-12-18T04:20:35;26.07;;;15.60;;
9388;SDS011;4734;52.778;6.798;2022-12-18T04:23:21;21.10;;;13.87;;
9388;SDS011;4734;52.778;6.798;2022-12-18T04:26:08;25.93;;;14.83;;
9388;SDS011;4734;52.778;6.798;2022-12-18T04:28:53;23.20;;;14.30;;
9388;SDS011;4734;52.778;6.798;2022-12-18T04:31:39;23.23;;;13.50;;
9388;SDS011;4734;52.778;6.798;2022-12-18T04:34:25;26.50;;;14.37;;
9388;SDS011;4734;52.778;6.798;2022-12-18T04:37:10;25.53;;;13.53;;
9388;SDS011;4734;52.778;6.798;2022-12-18T04:39:56;22.23;;;14.00;;
9388;SDS011;4734;52.778;6.798;2022-12-18T04:42:43;23.40;;;14.20;;
9388;SDS011;4734;52.778;6.798;2022-12-18T04:45:29;25.33;;;13.70;;
9388;SDS011;4734;52.778;6.798;2022-12-18T04:48:15;20.07;;;13.17;;
9388;SDS011;4734;52.778;6.798;2022-12-18T04:51:01;22.20;;;13.57;;
9388;SDS011;4734;52.778;6.798;2022-12-18T04:53:47;23.97;;;14.40;;
9388;SDS011;4734;52.778;6.798;2022-12-18T04:56:32;20.77;;;12.47;;
9388;SDS011;4734;52.778;6.798;2022-12-18T04:59:19;20.73;;;13.13;;
9388;SDS011;4734;52.778;6.798;2022-12-18T05:02:05;20.43;;;12.60;;
9388;SDS011;4734;52.778;6.798;2022-12-18T05:04:51;24.50;;;14.27;;
9388;SDS011;4734;52.778;6.798;2022-12-18T05:07:36;20.83;;;13.50;;
9388;SDS011;4734;52.778;6.798;2022-12-18T05:10:22;24.13;;;13.17;;
9388;SDS011;4734;52.778;6.798;2022-12-18T05:13:08;22.20;;;12.50;;
9388;SDS011;4734;52.778;6.798;2022-12-18T05:15:55;22.90;;;13.23;;
9388;SDS011;4734;52.778;6.798;2022-12-18T05:18:41;21.13;;;13.03;;
9388;SDS011;4734;52.778;6.798;2022-12-18T05:21:26;19.53;;;12.80;;
9388;SDS011;4734;52.778;6.798;2022-12-18T05:24:12;17.87;;;12.43;;
9388;SDS011;4734;52.778;6.798;2022-12-18T05:26:58;20.77;;;12.77;;
9388;SDS011;4734;52.778;6.798;2022-12-18T05:29:44;23.03;;;12.57;;
9388;SDS011;4734;52.778;6.798;2022-12-18T05:32:31;21.67;;;12.23;;
9388;SDS011;4734;52.778;6.798;2022-12-18T05:35:17;24.10;;;13.40;;
9388;SDS011;4734;52.778;6.798;2022-12-18T05:38:03;22.63;;;13.07;;
9388;SDS011;4734;52.778;6.798;2022-12-18T05:40:49;20.17;;;12.43;;
9388;SDS011;4734;52.778;6.798;2022-12-18T05:43:35;18.93;;;11.80;;
9388;SDS011;4734;52.778;6.798;2022-12-18T05:46:21;19.80;;;12.57;;
9388;SDS011;4734;52.778;6.798;2022-12-18T05:49:09;20.03;;;12.70;;
9388;SDS011;4734;52.778;6.798;2022-12-18T05:51:55;19.63;;;12.70;;
9388;SDS011;4734;52.778;6.798;2022-12-18T05:54:40;18.70;;;11.97;;
9388;SDS011;4734;52.778;6.798;2022-12-18T05:57:26;18.53;;;12.30;;
9388;SDS011;4734;52.778;6.798;2022-12-18T06:00:12;21.57;;;12.93;;
9388;SDS011;4734;52.778;6.798;2022-12-18T06:02:59;18.57;;;12.13;;
9388;SDS011;4734;52.778;6.798;2022-12-18T06:05:46;17.33;;;12.27;;
9388;SDS011;4734;52.778;6.798;2022-12-18T06:08:31;19.70;;;12.03;;
9388;SDS011;4734;52.778;6.798;2022-12-18T06:11:18;18.60;;;11.97;;
9388;SDS011;4734;52.778;6.798;2022-12-18T06:14:04;18.67;;;12.00;;
9388;SDS011;4734;52.778;6.798;2022-12-18T06:16:50;15.70;;;11.33;;
9388;SDS011;4734;52.778;6.798;2022-12-18T06:19:36;19.40;;;11.50;;
9388;SDS011;4734;52.778;6.798;2022-12-18T06:22:23;19.13;;;11.43;;
9388;SDS011;4734;52.778;6.798;2022-12-18T06:25:09;21.83;;;12.90;;
9388;SDS011;4734;52.778;6.798;2022-12-18T06:27:54;17.23;;;11.33;;
9388;SDS011;4734;52.778;6.798;2022-12-18T06:30:42;18.00;;;11.97;;
9388;SDS011;4734;52.778;6.798;2022-12-18T06:33:28;18.93;;;12.70;;
9388;SDS011;4734;52.778;6.798;2022-12-18T06:36:14;19.37;;;11.87;;
9388;SDS011;4734;52.778;6.798;2022-12-18T06:39:01;20.73;;;13.17;;
9388;SDS011;4734;52.778;6.798;2022-12-18T06:41:47;17.33;;;11.97;;
9388;SDS011;4734;52.778;6.798;2022-12-18T06:44:33;16.97;;;12.30;;
9388;SDS011;4734;52.778;6.798;2022-12-18T06:47:19;17.13;;;11.67;;
9388;SDS011;4734;52.778;6.798;2022-12-18T06:50:05;19.30;;;12.07;;
9388;SDS011;4734;52.778;6.798;2022-12-18T06:52:51;19.63;;;11.90;;
9388;SDS011;4734;52.778;6.798;2022-12-18T06:55:38;17.77;;;11.70;;
9388;SDS011;4734;52.778;6.798;2022-12-18T06:58:24;18.10;;;11.37;;
9388;SDS011;4734;52.778;6.798;2022-12-18T07:01:10;16.67;;;11.07;;
9388;SDS011;4734;52.778;6.798;2022-12-18T07:03:56;18.93;;;11.27;;
9388;SDS011;4734;52.778;6.798;2022-12-18T07:06:42;15.57;;;11.27;;
9388;SDS011;4734;52.778;6.798;2022-12-18T07:09:28;18.10;;;10.50;;
9388;SDS011;4734;52.778;6.798;2022-12-18T07:12:15;17.37;;;11.27;;
9388;SDS011;4734;52.778;6.798;2022-12-18T07:15:01;18.33;;;11.40;;
9388;SDS011;4734;52.778;6.798;2022-12-18T07:17:47;19.77;;;10.80;;
9388;SDS011;4734;52.778;6.798;2022-12-18T07:20:32;16.87;;;10.20;;
9388;SDS011;4734;52.778;6.798;2022-12-18T07:23:18;17.63;;;11.90;;
9388;SDS011;4734;52.778;6.798;2022-12-18T07:26:04;16.13;;;10.80;;
9388;SDS011;4734;52.778;6.798;2022-12-18T07:28:54;16.37;;;10.87;;
9388;SDS011;4734;52.778;6.798;2022-12-18T07:31:39;16.47;;;11.00;;
9388;SDS011;4734;52.778;6.798;2022-12-18T07:34:25;16.57;;;10.93;;
9388;SDS011;4734;52.778;6.798;2022-12-18T07:37:11;17.00;;;11.27;;
9388;SDS011;4734;52.778;6.798;2022-12-18T07:39:56;16.43;;;10.07;;
9388;SDS011;4734;52.778;6.798;2022-12-18T07:42:42;15.97;;;9.73;;
9388;SDS011;4734;52.778;6.798;2022-12-18T07:45:33;16.37;;;10.37;;
9388;SDS011;4734;52.778;6.798;2022-12-18T07:48:18;15.90;;;10.40;;
9388;SDS011;4734;52.778;6.798;2022-12-18T07:51:05;15.60;;;9.60;;
9388;SDS011;4734;52.778;6.798;2022-12-18T07:53:51;13.30;;;9.30;;
9388;SDS011;4734;52.778;6.798;2022-12-18T07:56:37;15.90;;;9.93;;
9388;SDS011;4734;52.778;6.798;2022-12-18T07:59:22;12.90;;;9.13;;
9388;SDS011;4734;52.778;6.798;2022-12-18T08:02:09;14.30;;;9.67;;
9388;SDS011;4734;52.778;6.798;2022-12-18T08:04:55;14.27;;;10.37;;
9388;SDS011;4734;52.778;6.798;2022-12-18T08:07:41;14.93;;;9.47;;
9388;SDS011;4734;52.778;6.798;2022-12-18T08:10:27;12.30;;;9.03;;
9388;SDS011;4734;52.778;6.798;2022-12-18T08:13:12;12.53;;;8.83;;
9388;SDS011;4734;52.778;6.798;2022-12-18T08:15:58;14.27;;;10.20;;
9388;SDS011;4734;52.778;6.798;2022-12-18T08:18:46;14.10;;;9.03;;
9388;SDS011;4734;52.778;6.798;2022-12-18T08:21:33;18.50;;;10.90;;
9388;SDS011;4734;52.778;6.798;2022-12-18T08:24:18;16.60;;;11.33;;
9388;SDS011;4734;52.778;6.798;2022-12-18T08:27:04;17.77;;;11.10;;
9388;SDS011;4734;52.778;6.798;2022-12-18T08:29:49;16.10;;;9.30;;
9388;SDS011;4734;52.778;6.798;2022-12-18T08:32:35;14.73;;;9.43;;
9388;SDS011;4734;52.778;6.798;2022-12-18T08:35:23;14.50;;;8.40;;
9388;SDS011;4734;52.778;6.798;2022-12-18T08:38:09;10.63;;;8.03;;
9388;SDS011;4734;52.778;6.798;2022-12-18T08:40:58;10.10;;;8.03;;
9388;SDS011;4734;52.778;6.798;2022-12-18T08:43:44;11.70;;;7.97;;
9388;SDS011;4734;52.778;6.798;2022-12-18T08:46:47;11.40;;;7.90;;
9388;SDS011;4734;52.778;6.798;2022-12-18T08:49:33;11.57;;;8.00;;
9388;SDS011;4734;52.778;6.798;2022-12-18T08:52:21;10.23;;;7.50;;
9388;SDS011;4734;52.778;6.798;2022-12-18T08:55:08;10.87;;;7.53;;
9388;SDS011;4734;52.778;6.798;2022-12-18T08:57:54;11.83;;;6.83;;
9388;SDS011;4734;52.778;6.798;2022-12-18T09:00:39;9.80;;;6.47;;
9388;SDS011;4734;52.778;6.798;2022-12-18T09:03:25;9.07;;;7.00;;
9388;SDS011;4734;52.778;6.798;2022-12-18T09:06:12;10.17;;;7.17;;
9388;SDS011;4734;52.778;6.798;2022-12-18T09:09:00;9.53;;;6.80;;
9388;SDS011;4734;52.778;6.798;2022-12-18T09:11:46;9.77;;;6.73;;
9388;SDS011;4734;52.778;6.798;2022-12-18T09:14:32;9.40;;;6.43;;
9388;SDS011;4734;52.778;6.798;2022-12-18T09:17:18;8.73;;;6.70;;
9388;SDS011;4734;52.778;6.798;2022-12-18T09:20:04;9.17;;;6.80;;
9388;SDS011;4734;52.778;6.798;2022-12-18T09:22:50;8.43;;;5.80;;
9388;SDS011;4734;52.778;6.798;2022-12-18T09:25:37;9.67;;;6.93;;
9388;SDS011;4734;52.778;6.798;2022-12-18T09:28:24;9.40;;;7.03;;
9388;SDS011;4734;52.778;6.798;2022-12-18T09:31:11;11.70;;;7.80;;
9388;SDS011;4734;52.778;6.798;2022-12-18T09:34:05;9.73;;;6.27;;
9388;SDS011;4734;52.778;6.798;2022-12-18T09:36:50;10.87;;;6.47;;
9388;SDS011;4734;52.778;6.798;2022-12-18T09:39:36;8.90;;;5.90;;
9388;SDS011;4734;52.778;6.798;2022-12-18T09:42:24;6.17;;;5.40;;
9388;SDS011;4734;52.778;6.798;2022-12-18T09:45:11;6.50;;;5.30;;
9388;SDS011;4734;52.778;6.798;2022-12-18T09:48:02;7.50;;;4.93;;
9388;SDS011;4734;52.778;6.798;2022-12-18T09:50:48;6.47;;;4.90;;
9388;SDS011;4734;52.778;6.798;2022-12-18T09:53:35;5.23;;;4.73;;
9388;SDS011;4734;52.778;6.798;2022-12-18T09:56:23;7.57;;;4.97;;
9388;SDS011;4734;52.778;6.798;2022-12-18T09:59:16;6.03;;;5.33;;
9388;SDS011;4734;52.778;6.798;2022-12-18T10:02:11;5.83;;;4.47;;
9388;SDS011;4734;52.778;6.798;2022-12-18T10:08:02;5.50;;;4.30;;
9388;SDS011;4734;52.778;6.798;2022-12-18T10:10:52;5.23;;;4.27;;
9388;SDS011;4734;52.778;6.798;2022-12-18T10:13:39;5.47;;;4.40;;
9388;SDS011;4734;52.778;6.798;2022-12-18T10:16:29;5.50;;;4.60;;
9388;SDS011;4734;52.778;6.798;2022-12-18T10:19:21;8.23;;;6.03;;
9388;SDS011;4734;52.778;6.798;2022-12-18T10:22:15;10.60;;;6.20;;
9388;SDS011;4734;52.778;6.798;2022-12-18T10:25:05;10.60;;;6.50;;
9388;SDS011;4734;52.778;6.798;2022-12-18T10:27:52;11.60;;;6.57;;
9388;SDS011;4734;52.778;6.798;2022-12-18T10:30:42;8.17;;;5.73;;
9388;SDS011;4734;52.778;6.798;2022-12-18T10:33:30;5.43;;;4.87;;
9388;SDS011;4734;52.778;6.798;2022-12-18T10:36:17;6.40;;;4.87;;
9388;SDS011;4734;52.778;6.798;2022-12-18T10:39:13;5.97;;;4.70;;
9388;SDS011;4734;52.778;6.798;2022-12-18T10:42:08;4.40;;;4.00;;
9388;SDS011;4734;52.778;6.798;2022-12-18T10:44:57;5.60;;;4.20;;
9388;SDS011;4734;52.778;6.798;2022-12-18T10:47:46;5.47;;;4.50;;
9388;SDS011;4734;52.778;6.798;2022-12-18T10:50:35;5.87;;;4.77;;
9388;SDS011;4734;52.778;6.798;2022-12-18T10:53:22;6.40;;;4.63;;
9388;SDS011;4734;52.778;6.798;2022-12-18T10:56:08;5.30;;;4.13;;
9388;SDS011;4734;52.778;6.798;2022-12-18T10:58:55;5.10;;;4.30;;
9388;SDS011;4734;52.778;6.798;2022-12-18T11:01:46;5.23;;;4.53;;
9388;SDS011;4734;52.778;6.798;2022-12-18T11:04:32;5.77;;;4.10;;
9388;SDS011;4734;52.778;6.798;2022-12-18T11:07:20;5.63;;;4.50;;
9388;SDS011;4734;52.778;6.798;2022-12-18T11:10:15;6.33;;;4.80;;
9388;SDS011;4734;52.778;6.798;2022-12-18T11:16:05;4.60;;;4.03;;
9388;SDS011;4734;52.778;6.798;2022-12-18T11:18:52;4.87;;;3.93;;
9388;SDS011;4734;52.778;6.798;2022-12-18T11:21:38;4.63;;;4.10;;
9388;SDS011;4734;52.778;6.798;2022-12-18T11:24:27;6.13;;;4.03;;
9388;SDS011;4734;52.778;6.798;2022-12-18T11:27:15;5.90;;;3.87;;
9388;SDS011;4734;52.778;6.798;2022-12-18T11:30:08;5.03;;;4.37;;
9388;SDS011;4734;52.778;6.798;2022-12-18T11:32:55;5.73;;;4.20;;
9388;SDS011;4734;52.778;6.798;2022-12-18T11:35:44;6.57;;;4.60;;
9388;SDS011;4734;52.778;6.798;2022-12-18T11:38:34;5.20;;;4.10;;
9388;SDS011;4734;52.778;6.798;2022-12-18T11:41:23;6.83;;;4.17;;
9388;SDS011;4734;52.778;6.798;2022-12-18T11:44:42;8.73;;;5.00;;
9388;SDS011;4734;52.778;6.798;2022-12-18T11:47:33;5.03;;;4.53;;
9388;SDS011;4734;52.778;6.798;2022-12-18T11:50:20;5.67;;;4.57;;
9388;SDS011;4734;52.778;6.798;2022-12-18T11:53:09;6.40;;;4.30;;
9388;SDS011;4734;52.778;6.798;2022-12-18T11:55:58;6.53;;;4.73;;
9388;SDS011;4734;52.778;6.798;2022-12-18T11:58:47;6.40;;;4.40;;
9388;SDS011;4734;52.778;6.798;2022-12-18T12:01:40;6.30;;;4.60;;
9388;SDS011;4734;52.778;6.798;2022-12-18T12:04:32;6.17;;;5.00;;
9388;SDS011;4734;52.778;6.798;2022-12-18T12:07:25;7.87;;;4.63;;
9388;SDS011;4734;52.778;6.798;2022-12-18T12:10:16;6.13;;;4.63;;
9388;SDS011;4734;52.778;6.798;2022-12-18T12:13:14;4.63;;;4.23;;
9388;SDS011;4734;52.778;6.798;2022-12-18T12:16:09;6.30;;;4.70;;
9388;SDS011;4734;52.778;6.798;2022-12-18T12:19:01;6.07;;;4.63;;
9388;SDS011;4734;52.778;6.798;2022-12-18T12:21:48;7.30;;;4.67;;
9388;SDS011;4734;52.778;6.798;2022-12-18T12:24:38;6.77;;;4.80;;
9388;SDS011;4734;52.778;6.798;2022-12-18T12:27:27;4.80;;;4.30;;
9388;SDS011;4734;52.778;6.798;2022-12-18T12:30:18;5.73;;;4.53;;
9388;SDS011;4734;52.778;6.798;2022-12-18T12:33:09;7.53;;;5.00;;
9388;SDS011;4734;52.778;6.798;2022-12-18T12:36:01;5.63;;;4.43;;
9388;SDS011;4734;52.778;6.798;2022-12-18T12:38:50;4.93;;;4.30;;
9388;SDS011;4734;52.778;6.798;2022-12-18T12:41:37;5.23;;;4.40;;
9388;SDS011;4734;52.778;6.798;2022-12-18T12:44:42;7.23;;;4.77;;
9388;SDS011;4734;52.778;6.798;2022-12-18T12:47:32;5.20;;;4.20;;
9388;SDS011;4734;52.778;6.798;2022-12-18T12:50:22;7.10;;;4.83;;
9388;SDS011;4734;52.778;6.798;2022-12-18T12:53:09;6.80;;;5.20;;
9388;SDS011;4734;52.778;6.798;2022-12-18T12:55:59;4.80;;;4.30;;
9388;SDS011;4734;52.778;6.798;2022-12-18T12:58:49;7.07;;;5.30;;
9388;SDS011;4734;52.778;6.798;2022-12-18T13:01:38;8.87;;;5.50;;
9388;SDS011;4734;52.778;6.798;2022-12-18T13:04:27;6.37;;;5.60;;
9388;SDS011;4734;52.778;6.798;2022-12-18T13:07:19;6.70;;;5.27;;
9388;SDS011;4734;52.778;6.798;2022-12-18T13:10:13;6.90;;;5.40;;
9388;SDS011;4734;52.778;6.798;2022-12-18T13:13:00;7.23;;;5.70;;
9388;SDS011;4734;52.778;6.798;2022-12-18T13:15:46;6.57;;;5.30;;
9388;SDS011;4734;52.778;6.798;2022-12-18T13:18:32;5.83;;;4.90;;
9388;SDS011;4734;52.778;6.798;2022-12-18T13:21:21;6.83;;;5.57;;
9388;SDS011;4734;52.778;6.798;2022-12-18T13:24:15;6.03;;;5.30;;
9388;SDS011;4734;52.778;6.798;2022-12-18T13:27:21;4.80;;;4.10;;
9388;SDS011;4734;52.778;6.798;2022-12-18T13:36:32;6.17;;;5.13;;
9388;SDS011;4734;52.778;6.798;2022-12-18T13:39:23;6.33;;;5.67;;
9388;SDS011;4734;52.778;6.798;2022-12-18T13:42:31;6.07;;;5.30;;
9388;SDS011;4734;52.778;6.798;2022-12-18T13:45:40;6.57;;;5.33;;
9388;SDS011;4734;52.778;6.798;2022-12-18T13:48:26;5.90;;;5.30;;
9388;SDS011;4734;52.778;6.798;2022-12-18T13:51:12;7.47;;;5.67;;
9388;SDS011;4734;52.778;6.798;2022-12-18T13:54:17;7.23;;;5.47;;
9388;SDS011;4734;52.778;6.798;2022-12-18T13:57:22;6.47;;;5.47;;
9388;SDS011;4734;52.778;6.798;2022-12-18T14:00:23;6.17;;;5.37;;
9388;SDS011;4734;52.778;6.798;2022-12-18T14:03:15;6.20;;;5.53;;
9388;SDS011;4734;52.778;6.798;2022-12-18T14:06:03;7.43;;;5.47;;
9388;SDS011;4734;52.778;6.798;2022-12-18T14:08:49;6.90;;;5.40;;
9388;SDS011;4734;52.778;6.798;2022-12-18T14:11:35;6.03;;;5.40;;
9388;SDS011;4734;52.778;6.798;2022-12-18T14:14:23;6.70;;;5.30;;
9388;SDS011;4734;52.778;6.798;2022-12-18T14:17:09;8.47;;;5.97;;
9388;SDS011;4734;52.778;6.798;2022-12-18T14:19:55;5.87;;;5.13;;
9388;SDS011;4734;52.778;6.798;2022-12-18T14:22:42;7.00;;;5.83;;
9388;SDS011;4734;52.778;6.798;2022-12-18T14:25:29;8.00;;;5.60;;
9388;SDS011;4734;52.778;6.798;2022-12-18T14:28:15;7.13;;;5.47;;
9388;SDS011;4734;52.778;6.798;2022-12-18T14:31:03;6.03;;;5.27;;
9388;SDS011;4734;52.778;6.798;2022-12-18T14:33:49;6.53;;;5.17;;
9388;SDS011;4734;52.778;6.798;2022-12-18T14:36:35;6.57;;;5.60;;
9388;SDS011;4734;52.778;6.798;2022-12-18T14:39:23;6.57;;;5.70;;
9388;SDS011;4734;52.778;6.798;2022-12-18T14:42:10;8.73;;;6.23;;
9388;SDS011;4734;52.778;6.798;2022-12-18T14:48:05;6.00;;;5.40;;
9388;SDS011;4734;52.778;6.798;2022-12-18T14:50:55;7.57;;;6.00;;
9388;SDS011;4734;52.778;6.798;2022-12-18T14:53:42;6.50;;;5.20;;
9388;SDS011;4734;52.778;6.798;2022-12-18T14:56:29;8.53;;;6.00;;
9388;SDS011;4734;52.778;6.798;2022-12-18T14:59:16;7.93;;;6.00;;
9388;SDS011;4734;52.778;6.798;2022-12-18T15:02:04;7.63;;;5.97;;
9388;SDS011;4734;52.778;6.798;2022-12-18T15:05:00;8.40;;;6.53;;
9388;SDS011;4734;52.778;6.798;2022-12-18T15:07:47;7.67;;;6.10;;
9388;SDS011;4734;52.778;6.798;2022-12-18T15:10:33;7.33;;;6.03;;
9388;SDS011;4734;52.778;6.798;2022-12-18T15:13:20;6.20;;;5.60;;
9388;SDS011;4734;52.778;6.798;2022-12-18T15:16:08;7.00;;;5.90;;
9388;SDS011;4734;52.778;6.798;2022-12-18T15:18:57;7.90;;;6.00;;
9388;SDS011;4734;52.778;6.798;2022-12-18T15:21:44;7.73;;;6.23;;
9388;SDS011;4734;52.778;6.798;2022-12-18T15:24:30;9.90;;;7.00;;
9388;SDS011;4734;52.778;6.798;2022-12-18T15:27:25;9.10;;;6.67;;
9388;SDS011;4734;52.778;6.798;2022-12-18T15:30:21;7.50;;;6.43;;
9388;SDS011;4734;52.778;6.798;2022-12-18T15:33:20;7.27;;;6.07;;
9388;SDS011;4734;52.778;6.798;2022-12-18T15:36:10;8.80;;;6.40;;
9388;SDS011;4734;52.778;6.798;2022-12-18T15:38:57;10.37;;;8.13;;
9388;SDS011;4734;52.778;6.798;2022-12-18T15:41:43;9.30;;;5.87;;
9388;SDS011;4734;52.778;6.798;2022-12-18T15:44:43;8.87;;;6.10;;
9388;SDS011;4734;52.778;6.798;2022-12-18T15:47:29;7.90;;;6.43;;
9388;SDS011;4734;52.778;6.798;2022-12-18T15:50:16;10.80;;;7.60;;
9388;SDS011;4734;52.778;6.798;2022-12-18T15:53:02;7.33;;;6.07;;
9388;SDS011;4734;52.778;6.798;2022-12-18T15:55:49;7.57;;;6.13;;
9388;SDS011;4734;52.778;6.798;2022-12-18T15:58:53;7.57;;;6.47;;
9388;SDS011;4734;52.778;6.798;2022-12-18T16:01:39;8.47;;;6.30;;
9388;SDS011;4734;52.778;6.798;2022-12-18T16:04:25;8.50;;;7.10;;
9388;SDS011;4734;52.778;6.798;2022-12-18T16:07:11;8.63;;;6.80;;
9388;SDS011;4734;52.778;6.798;2022-12-18T16:09:56;10.77;;;6.40;;
9388;SDS011;4734;52.778;6.798;2022-12-18T16:12:43;9.63;;;6.73;;
9388;SDS011;4734;52.778;6.798;2022-12-18T16:15:29;8.50;;;7.00;;
9388;SDS011;4734;52.778;6.798;2022-12-18T16:18:17;9.57;;;6.50;;
9388;SDS011;4734;52.778;6.798;2022-12-18T16:21:04;8.63;;;6.43;;
9388;SDS011;4734;52.778;6.798;2022-12-18T16:23:51;7.00;;;6.23;;
9388;SDS011;4734;52.778;6.798;2022-12-18T16:26:37;9.17;;;6.20;;
9388;SDS011;4734;52.778;6.798;2022-12-18T16:29:27;9.07;;;7.00;;
9388;SDS011;4734;52.778;6.798;2022-12-18T16:32:14;7.90;;;6.00;;
9388;SDS011;4734;52.778;6.798;2022-12-18T16:35:00;7.97;;;6.60;;
9388;SDS011;4734;52.778;6.798;2022-12-18T16:37:45;8.77;;;6.57;;
9388;SDS011;4734;52.778;6.798;2022-12-18T16:40:32;9.47;;;7.37;;
9388;SDS011;4734;52.778;6.798;2022-12-18T16:43:37;7.70;;;6.50;;
9388;SDS011;4734;52.778;6.798;2022-12-18T16:46:24;7.90;;;6.70;;
9388;SDS011;4734;52.778;6.798;2022-12-18T16:49:10;9.30;;;6.63;;
9388;SDS011;4734;52.778;6.798;2022-12-18T16:51:56;7.30;;;6.10;;
9388;SDS011;4734;52.778;6.798;2022-12-18T16:54:44;8.30;;;6.57;;
9388;SDS011;4734;52.778;6.798;2022-12-18T16:57:30;8.57;;;6.37;;
9388;SDS011;4734;52.778;6.798;2022-12-18T17:00:16;7.63;;;6.57;;
9388;SDS011;4734;52.778;6.798;2022-12-18T17:03:04;8.40;;;7.13;;
9388;SDS011;4734;52.778;6.798;2022-12-18T17:05:49;8.90;;;6.60;;
9388;SDS011;4734;52.778;6.798;2022-12-18T17:08:35;8.73;;;6.83;;
9388;SDS011;4734;52.778;6.798;2022-12-18T17:11:24;8.17;;;6.53;;
9388;SDS011;4734;52.778;6.798;2022-12-18T17:14:12;8.77;;;6.77;;
9388;SDS011;4734;52.778;6.798;2022-12-18T17:16:58;7.20;;;5.80;;
9388;SDS011;4734;52.778;6.798;2022-12-18T17:19:45;7.37;;;6.27;;
9388;SDS011;4734;52.778;6.798;2022-12-18T17:22:31;7.93;;;6.27;;